Time;durP1;ratioP1;P1;durP2;ratioP2;P2;SDS_P1;SDS_P2;PMS_P1;PMS_P2;Temp;Humidity;BMP_temperature;BMP_pressure;BME280_temperature;BME280_humidity;BME280_pressure;Samples;Min_cycle;Max_cycle;Signal;HPM_P1;HPM_P2
2021/06/18 00:01:06;;;;;;;9.70;8.52;;;;;;;19.24;62.75;100040.38;5116335;28;20360;-50
2021/06/18 00:03:32;;;;;;;9.00;6.93;;;;;;;19.22;62.56;100034.31;5116274;28;20088;-50
2021/06/18 00:05:58;;;;;;;10.18;8.30;;;;;;;19.19;62.93;100039.78;5116315;28;20044;-50
2021/06/18 00:08:24;;;;;;;9.40;7.72;;;;;;;19.15;62.97;100045.28;5116280;28;20050;-50
2021/06/18 00:10:50;;;;;;;12.07;8.95;;;;;;;19.13;62.85;100033.03;5116133;28;20129;-49
2021/06/18 00:13:16;;;;;;;11.63;8.27;;;;;;;19.08;62.86;100028.00;5116167;28;20062;-50
2021/06/18 00:15:42;;;;;;;9.70;8.30;;;;;;;19.06;63.07;100021.91;5118758;28;20052;-50
2021/06/18 00:18:07;;;;;;;10.00;9.02;;;;;;;19.04;63.03;100026.44;5120518;28;20360;-50
2021/06/18 00:20:33;;;;;;;10.50;8.38;;;;;;;18.99;63.15;100025.84;5120322;27;20055;-49
2021/06/18 00:22:59;;;;;;;13.48;9.75;;;;;;;18.97;63.19;100026.88;5120197;27;20043;-50
2021/06/18 00:25:25;;;;;;;10.73;9.45;;;;;;;18.91;63.63;100022.75;5120425;28;20063;-50
2021/06/18 00:27:52;;;;;;;11.93;9.27;;;;;;;18.89;63.49;100022.84;5119912;28;20056;-50
2021/06/18 00:30:18;;;;;;;11.30;8.98;;;;;;;18.87;63.32;100022.06;5120222;28;20074;-50
2021/06/18 00:32:44;;;;;;;12.48;10.60;;;;;;;18.85;63.43;100025.78;5119397;28;20073;-50
2021/06/18 00:35:11;;;;;;;13.75;10.20;;;;;;;18.81;63.42;100019.75;5119092;28;20032;-49
2021/06/18 00:37:36;;;;;;;17.35;12.73;;;;;;;18.76;63.73;100026.28;5120186;28;20052;-49
2021/06/18 00:40:05;;;;;;;17.90;12.05;;;;;;;18.80;63.51;100025.16;5102308;28;20463;-50
2021/06/18 00:42:31;;;;;;;13.55;10.90;;;;;;;18.76;63.67;100020.97;5120616;28;20058;-49
2021/06/18 00:44:57;;;;;;;14.07;10.88;;;;;;;18.74;63.75;100029.00;5119176;28;20347;-50
2021/06/18 00:47:23;;;;;;;13.70;11.13;;;;;;;18.73;63.51;100023.81;5119972;28;20057;-50
2021/06/18 00:49:49;;;;;;;14.40;12.18;;;;;;;18.70;63.77;100032.75;5119523;28;20455;-50
2021/06/18 00:52:16;;;;;;;14.20;11.70;;;;;;;18.66;63.95;100033.88;5118971;28;20059;-50
2021/06/18 00:54:43;;;;;;;13.07;11.05;;;;;;;18.60;64.00;100026.25;5119859;28;20411;-50
2021/06/18 00:57:09;;;;;;;16.65;12.43;;;;;;;18.55;64.17;100023.81;5119750;28;20043;-49
2021/06/18 00:59:35;;;;;;;13.40;11.32;;;;;;;18.51;64.12;100016.13;5118911;28;20336;-49
2021/06/18 01:02:00;;;;;;;13.98;11.60;;;;;;;18.47;64.40;100015.44;5119375;28;20047;-49
2021/06/18 01:04:27;;;;;;;13.88;11.85;;;;;;;18.40;64.88;100014.91;5119656;28;20083;-49
2021/06/18 01:07:07;;;;;;;15.27;12.00;;;;;;;18.36;65.00;100013.38;5101468;28;20517;-49
2021/06/18 01:09:45;;;;;;;15.23;11.63;;;;;;;18.29;65.25;100011.13;5119513;28;20051;-49
2021/06/18 01:12:16;;;;;;;15.40;11.35;;;;;;;18.30;64.99;100016.34;5102265;28;20043;-49
2021/06/18 01:15:05;;;;;;;14.32;11.98;;;;;;;18.24;65.47;100010.53;5118396;28;20044;-49
2021/06/18 01:18:00;;;;;;;15.93;12.98;;;;;;;18.20;65.38;100013.34;5119413;28;20043;-49
2021/06/18 01:20:55;;;;;;;17.83;13.57;;;;;;;18.12;65.71;100015.53;5119381;28;20066;-49
2021/06/18 01:23:29;;;;;;;15.02;12.52;;;;;;;18.08;65.82;100013.13;5118714;28;20428;-49
2021/06/18 01:26:13;;;;;;;17.38;12.90;;;;;;;18.07;65.92;100006.09;5118877;28;20043;-49
2021/06/18 01:28:41;;;;;;;13.55;11.30;;;;;;;18.00;65.66;99994.97;5101834;28;20088;-49
2021/06/18 01:31:10;;;;;;;18.90;13.90;;;;;;;18.05;65.75;100000.03;5119079;28;20121;-49
2021/06/18 01:33:36;;;;;;;19.77;14.77;;;;;;;18.03;65.84;100001.91;5117979;28;20352;-49
2021/06/18 01:36:02;;;;;;;16.08;13.75;;;;;;;18.03;65.98;100004.56;5101224;28;20052;-49
2021/06/18 01:38:28;;;;;;;17.15;13.38;;;;;;;18.02;66.04;100005.50;5118698;28;20047;-49
2021/06/18 01:40:56;;;;;;;16.35;12.93;;;;;;;18.00;65.92;99997.63;5101126;28;20073;-49
2021/06/18 01:43:21;;;;;;;16.15;14.18;;;;;;;17.97;65.91;99992.47;5101285;28;20124;-49
2021/06/18 01:45:47;;;;;;;18.35;13.90;;;;;;;17.94;66.22;100004.13;5118281;28;20420;-49
2021/06/18 01:48:13;;;;;;;14.55;13.05;;;;;;;17.93;66.37;99998.88;5100725;28;20054;-49
2021/06/18 01:50:39;;;;;;;18.98;14.40;;;;;;;17.90;66.54;99999.88;5116459;28;20046;-49
2021/06/18 01:53:10;;;;;;;17.02;13.13;;;;;;;17.90;66.52;99997.25;5117521;28;20051;-49
2021/06/18 01:55:35;;;;;;;17.08;13.15;;;;;;;17.86;66.75;99995.69;5119200;28;20059;-49
2021/06/18 01:58:02;;;;;;;16.70;13.02;;;;;;;17.85;66.47;99993.13;5117751;28;20477;-49
2021/06/18 02:00:29;;;;;;;14.23;12.63;;;;;;;17.82;66.40;99993.31;5118525;28;20044;-49
2021/06/18 02:03:03;;;;;;;13.65;11.65;;;;;;;17.82;66.56;99995.94;5117345;28;20078;-49
2021/06/18 02:05:30;;;;;;;16.35;13.02;;;;;;;17.77;66.67;99995.31;5117280;28;20504;-49
2021/06/18 02:07:56;;;;;;;17.77;12.82;;;;;;;17.74;66.68;99997.19;5100426;28;20092;-49
2021/06/18 02:10:22;;;;;;;13.95;11.40;;;;;;;17.72;66.54;99996.38;5117979;28;20466;-49
2021/06/18 02:12:48;;;;;;;18.13;12.02;;;;;;;17.70;66.92;99997.41;5100299;28;20047;-49
2021/06/18 02:15:16;;;;;;;16.20;11.60;;;;;;;17.68;66.97;100000.13;5118152;28;20050;-49
2021/06/18 02:17:41;;;;;;;13.45;11.02;;;;;;;17.68;66.79;99999.28;5117950;27;20486;-49
2021/06/18 02:20:08;;;;;;;13.52;11.43;;;;;;;17.67;66.87;99993.09;5117855;28;20436;-49
2021/06/18 02:22:37;;;;;;;14.70;11.80;;;;;;;17.65;66.81;99995.00;5117017;28;20107;-49
2021/06/18 02:25:03;;;;;;;17.88;13.43;;;;;;;17.64;66.93;100003.00;5083525;28;20102;-49
2021/06/18 02:27:29;;;;;;;15.15;11.85;;;;;;;17.61;66.76;99993.41;5116980;28;20052;-49
2021/06/18 02:29:55;;;;;;;13.18;11.25;;;;;;;17.57;66.77;99997.16;5117919;27;20439;-49
2021/06/18 02:32:21;;;;;;;13.23;10.95;;;;;;;17.55;66.97;99992.88;5117651;28;20116;-49
2021/06/18 02:34:49;;;;;;;15.40;11.60;;;;;;;17.51;66.89;99997.47;5116785;28;20097;-49
2021/06/18 02:37:14;;;;;;;12.98;11.00;;;;;;;17.48;67.10;99995.84;5117782;28;20047;-49
2021/06/18 02:39:43;;;;;;;14.30;11.48;;;;;;;17.46;67.35;99987.13;5117475;28;20393;-49
2021/06/18 02:42:10;;;;;;;15.77;11.35;;;;;;;17.43;67.37;99981.97;5117769;28;20058;-49
2021/06/18 02:44:38;;;;;;;15.30;12.25;;;;;;;17.41;67.56;99985.63;5117725;28;20054;-49
2021/06/18 02:47:23;;;;;;;13.27;10.57;;;;;;;17.40;67.72;99984.78;5117639;28;20075;-49
2021/06/18 02:49:54;;;;;;;14.95;11.25;;;;;;;17.38;67.93;99985.78;5116663;28;20061;-49
2021/06/18 02:53:00;;;;;;;17.48;11.73;;;;;;;17.34;68.10;99993.03;5117597;28;20112;-49
2021/06/18 02:55:29;;;;;;;14.70;10.75;;;;;;;17.24;68.15;99987.34;5116644;28;20348;-49
2021/06/18 02:58:07;;;;;;;15.93;11.35;;;;;;;17.29;68.20;100001.22;5116357;28;20043;-49
2021/06/18 03:00:33;;;;;;;14.88;11.23;;;;;;;17.27;68.26;100004.88;5116575;28;20044;-49
2021/06/18 03:02:59;;;;;;;17.42;11.48;;;;;;;17.25;68.51;100004.06;5116287;28;20070;-49
2021/06/18 03:05:26;;;;;;;14.80;11.82;;;;;;;17.28;68.71;99999.47;5117342;28;20064;-49
2021/06/18 03:08:03;;;;;;;14.25;10.98;;;;;;;17.32;68.74;100002.81;5117591;28;20093;-49
2021/06/18 03:10:37;;;;;;;15.93;12.10;;;;;;;17.27;69.00;100000.41;5116903;28;20398;-49
2021/06/18 03:13:13;;;;;;;16.42;11.80;;;;;;;17.34;68.76;100010.72;5100352;28;20447;-49
2021/06/18 03:15:44;;;;;;;12.70;10.00;;;;;;;17.39;68.75;100009.56;5100476;28;20044;-49
2021/06/18 03:18:10;;;;;;;12.75;11.32;;;;;;;17.42;68.55;100014.69;5115829;28;20055;-49
2021/06/18 03:20:36;;;;;;;12.35;10.85;;;;;;;17.45;68.61;100018.97;5114982;28;20130;-49
2021/06/18 03:23:04;;;;;;;17.98;11.10;;;;;;;17.49;68.51;100015.25;5114438;28;20102;-49
2021/06/18 03:25:32;;;;;;;13.15;10.82;;;;;;;17.52;68.48;100013.28;5097514;28;20051;-49
2021/06/18 03:27:57;;;;;;;13.45;10.38;;;;;;;17.57;68.41;100015.69;5113789;28;20455;-49
2021/06/18 03:30:24;;;;;;;11.07;9.75;;;;;;;17.60;68.26;100018.19;5113684;28;20508;-49
2021/06/18 03:32:51;;;;;;;12.50;10.68;;;;;;;17.64;68.04;100011.81;5114002;28;20044;-49
2021/06/18 03:35:17;;;;;;;11.43;9.57;;;;;;;17.62;67.93;100010.19;5113771;28;20032;-49
2021/06/18 03:37:42;;;;;;;12.07;9.80;;;;;;;17.72;68.11;100006.97;5097643;28;20445;-49
2021/06/18 03:40:09;;;;;;;15.35;9.68;;;;;;;17.75;68.10;100005.97;5099085;28;20043;-49
2021/06/18 03:42:36;;;;;;;13.43;9.90;;;;;;;17.79;68.53;100004.91;5116529;28;20046;-49
2021/06/18 03:45:03;;;;;;;13.45;9.20;;;;;;;17.82;67.99;99999.44;5082638;28;20047;-49
2021/06/18 03:47:29;;;;;;;13.40;9.32;;;;;;;17.88;68.16;100006.22;5116414;28;20051;-49
2021/06/18 03:49:55;;;;;;;12.55;8.88;;;;;;;17.89;67.87;100007.94;5115911;28;20054;-49
2021/06/18 03:52:21;;;;;;;16.67;9.60;;;;;;;17.94;68.04;100004.13;5098947;28;20051;-49
2021/06/18 03:54:47;;;;;;;11.68;8.85;;;;;;;18.05;67.94;100010.66;5115560;28;20036;-49
2021/06/18 03:57:14;;;;;;;11.15;9.80;;;;;;;18.20;67.90;100015.13;5099388;28;20048;-49
2021/06/18 03:59:40;;;;;;;10.57;9.45;;;;;;;18.44;67.77;100011.16;5098758;28;20432;-49
2021/06/18 04:02:06;;;;;;;10.23;8.45;;;;;;;18.72;67.43;100017.66;5115724;28;20055;-49
2021/06/18 04:04:32;;;;;;;13.55;9.40;;;;;;;19.13;67.19;100025.91;5115440;28;20424;-49
2021/06/18 04:06:58;;;;;;;14.18;11.65;;;;;;;19.59;66.15;100015.28;5116557;28;20047;-49
2021/06/18 04:09:24;;;;;;;14.38;11.93;;;;;;;20.17;65.04;100018.91;5115589;28;20092;-49
2021/06/18 04:11:50;;;;;;;17.02;13.40;;;;;;;20.81;63.58;100024.72;5098771;28;20047;-49
2021/06/18 04:14:16;;;;;;;14.43;13.00;;;;;;;21.30;60.63;100010.84;5098778;28;20044;-49
2021/06/18 04:16:42;;;;;;;14.35;12.00;;;;;;;21.73;59.48;100017.81;5115582;28;20050;-49
2021/06/18 04:19:08;;;;;;;11.75;10.15;;;;;;;22.29;58.51;100010.38;5116223;28;20044;-50
2021/06/18 04:21:34;;;;;;;12.85;9.73;;;;;;;22.85;57.61;100013.50;5115569;28;20051;-50
2021/06/18 04:24:00;;;;;;;14.70;9.57;;;;;;;23.31;55.81;100012.78;5115265;28;20055;-50
2021/06/18 04:26:25;;;;;;;14.95;9.43;;;;;;;23.70;55.24;100011.63;5116199;28;20051;-50
2021/06/18 04:28:51;;;;;;;11.40;8.55;;;;;;;24.17;53.99;100008.91;5116368;28;20048;-50
2021/06/18 04:31:17;;;;;;;11.30;7.80;;;;;;;24.60;53.03;100008.19;5116296;28;20104;-50
2021/06/18 04:33:43;;;;;;;9.60;8.32;;;;;;;25.01;51.82;100006.69;5116560;28;20051;-50
2021/06/18 04:36:09;;;;;;;8.18;7.43;;;;;;;25.39;51.01;100009.75;5116010;28;20048;-50
2021/06/18 04:38:38;;;;;;;9.82;7.65;;;;;;;25.71;49.42;100008.03;5081428;28;20071;-50
2021/06/18 04:41:04;;;;;;;12.65;7.93;;;;;;;25.86;48.76;99999.50;5115930;28;20463;-50
2021/06/18 04:43:29;;;;;;;10.00;7.82;;;;;;;26.23;48.19;100000.88;5116228;28;20048;-50
2021/06/18 04:45:56;;;;;;;8.63;7.05;;;;;;;26.33;47.61;99996.38;5115974;28;20106;-50
2021/06/18 04:48:21;;;;;;;12.52;7.38;;;;;;;26.49;47.01;100001.28;5116197;28;20047;-49
2021/06/18 04:50:47;;;;;;;9.40;6.75;;;;;;;26.62;46.69;99993.84;5115774;28;20507;-50
2021/06/18 04:53:13;;;;;;;11.20;6.95;;;;;;;26.70;46.13;100002.06;5116041;28;20056;-50
2021/06/18 04:55:40;;;;;;;9.27;6.53;;;;;;;26.75;45.38;100001.66;5116144;28;20123;-50
2021/06/18 04:58:05;;;;;;;8.25;5.55;;;;;;;26.72;45.10;100000.09;5115225;28;20078;-50
2021/06/18 05:00:33;;;;;;;6.07;5.20;;;;;;;26.73;45.47;99999.09;5115820;28;20047;-49
2021/06/18 05:02:59;;;;;;;5.72;5.13;;;;;;;27.01;44.78;99993.94;5117328;28;20051;-50
2021/06/18 05:05:25;;;;;;;8.73;5.05;;;;;;;27.25;44.09;99998.91;5118713;28;20329;-50
2021/06/18 05:07:52;;;;;;;7.32;4.95;;;;;;;27.23;44.24;99993.69;5118738;28;20058;-50
2021/06/18 05:10:18;;;;;;;7.97;5.63;;;;;;;27.40;43.69;100004.75;5119499;28;20036;-49
2021/06/18 05:12:44;;;;;;;6.28;5.53;;;;;;;27.52;43.71;100008.13;5118391;28;20035;-49
2021/06/18 05:15:10;;;;;;;6.53;4.47;;;;;;;27.52;43.44;100008.97;5119749;28;20134;-50
2021/06/18 05:17:36;;;;;;;9.50;4.82;;;;;;;27.93;42.78;100005.13;5119113;28;20048;-50
2021/06/18 05:20:03;;;;;;;5.72;4.65;;;;;;;27.78;40.91;100009.25;5119368;28;20039;-50
2021/06/18 05:22:29;;;;;;;6.53;4.28;;;;;;;28.05;42.20;100015.72;5119020;28;20048;-50
2021/06/18 05:24:54;;;;;;;7.60;4.13;;;;;;;28.32;41.67;100006.84;5118978;28;20104;-50
2021/06/18 05:27:20;;;;;;;4.18;3.70;;;;;;;28.64;40.96;100010.00;5117977;28;20056;-50
2021/06/18 05:29:46;;;;;;;6.60;4.18;;;;;;;28.62;40.49;100011.97;5118033;28;20051;-50
2021/06/18 05:32:12;;;;;;;3.85;3.45;;;;;;;28.85;40.51;100009.72;5119118;28;20092;-49
2021/06/18 05:34:38;;;;;;;9.77;3.55;;;;;;;29.16;40.45;100012.13;5119068;28;20054;-50
2021/06/18 05:37:04;;;;;;;7.18;4.32;;;;;;;29.28;39.43;100010.91;5119053;28;20059;-50
2021/06/18 05:39:30;;;;;;;5.78;4.10;;;;;;;29.14;39.43;100016.81;5119005;28;20043;-50
2021/06/18 05:41:55;;;;;;;6.50;4.32;;;;;;;29.51;38.82;100015.78;5118978;28;20432;-50
2021/06/18 05:44:21;;;;;;;8.10;4.40;;;;;;;29.63;39.30;100016.44;5118928;27;20455;-49
2021/06/18 05:46:47;;;;;;;6.95;4.72;;;;;;;29.48;38.32;100005.34;5118669;27;20398;-50
2021/06/18 05:49:13;;;;;;;9.65;5.05;;;;;;;29.55;38.48;100011.81;5118472;28;20081;-51
2021/06/18 05:51:39;;;;;;;14.45;5.25;;;;;;;29.69;38.87;100003.16;5118515;28;20052;-50
2021/06/18 05:54:05;;;;;;;7.55;4.57;;;;;;;29.95;39.26;100008.59;5118402;28;20047;-50
2021/06/18 05:56:31;;;;;;;6.88;3.70;;;;;;;30.23;38.84;100008.47;5117656;28;20442;-50
2021/06/18 05:58:57;;;;;;;5.93;4.55;;;;;;;30.51;38.13;100001.81;5117747;28;20131;-50
2021/06/18 06:01:24;;;;;;;5.25;3.83;;;;;;;30.74;37.67;100007.50;5118297;28;20062;-50
2021/06/18 06:03:53;;;;;;;6.53;4.35;;;;;;;30.72;36.70;100001.41;5118285;28;20044;-50
2021/06/18 06:06:21;;;;;;;7.50;4.82;;;;;;;30.72;36.79;100006.81;5118496;28;20050;-50
2021/06/18 06:08:46;;;;;;;7.38;4.00;;;;;;;30.79;36.70;99993.53;5118448;28;20063;-50
2021/06/18 06:11:12;;;;;;;5.85;3.92;;;;;;;30.93;37.06;100000.16;5118317;28;20428;-50
2021/06/18 06:13:38;;;;;;;8.50;4.85;;;;;;;30.71;36.60;100001.56;5117552;28;20051;-50
2021/06/18 06:16:04;;;;;;;8.80;5.13;;;;;;;30.77;36.55;99995.53;5118538;28;20058;-50
2021/06/18 06:18:30;;;;;;;9.63;4.35;;;;;;;30.84;36.84;100003.81;5118512;28;20047;-50
2021/06/18 06:20:56;;;;;;;7.22;4.10;;;;;;;31.15;37.14;99994.09;5118281;27;20067;-49
2021/06/18 06:23:22;;;;;;;8.23;4.50;;;;;;;31.20;36.99;99991.75;5117856;28;20044;-50
2021/06/18 06:25:48;;;;;;;6.32;4.32;;;;;;;31.09;36.11;99989.34;5116474;28;20131;-49
2021/06/18 06:28:14;;;;;;;5.53;4.10;;;;;;;31.27;36.55;99985.69;5115875;28;20035;-50
2021/06/18 06:30:40;;;;;;;6.22;4.25;;;;;;;31.33;36.81;99990.44;5116761;28;20044;-50
2021/06/18 06:33:05;;;;;;;7.68;6.22;;;;;;;31.51;36.88;99990.28;5117650;28;20444;-50
2021/06/18 06:35:32;;;;;;;25.63;23.10;;;;;;;31.59;35.74;99990.25;5117622;28;20364;-50
2021/06/18 06:37:58;;;;;;;29.50;26.40;;;;;;;31.55;35.67;99978.94;5117849;27;20047;-50
2021/06/18 06:40:24;;;;;;;15.88;11.52;;;;;;;31.70;36.12;99986.38;5116887;28;20051;-50
2021/06/18 06:42:50;;;;;;;9.27;7.97;;;;;;;31.85;36.18;99987.34;5117689;28;20047;-50
2021/06/18 06:45:16;;;;;;;7.07;5.15;;;;;;;32.01;35.20;99981.09;5116844;28;20096;-50
2021/06/18 06:47:42;;;;;;;4.65;4.13;;;;;;;32.04;35.31;99983.47;5117376;28;20048;-50
2021/06/18 06:50:09;;;;;;;5.90;4.15;;;;;;;32.16;35.07;99989.38;5117238;28;20118;-50
2021/06/18 06:52:35;;;;;;;7.20;4.93;;;;;;;32.16;35.30;99983.94;5117587;28;20047;-49
2021/06/18 06:55:01;;;;;;;5.93;3.72;;;;;;;32.27;35.50;99988.97;5117385;28;20046;-49
2021/06/18 06:57:27;;;;;;;5.85;5.20;;;;;;;32.06;34.78;99979.56;5117231;28;20036;-50
2021/06/18 06:59:52;;;;;;;7.90;4.65;;;;;;;31.80;35.99;99990.59;5117154;28;20525;-49
2021/06/18 07:02:18;;;;;;;8.05;4.65;;;;;;;31.68;35.40;99986.53;5117097;28;20058;-50
2021/06/18 07:04:44;;;;;;;5.20;4.10;;;;;;;31.70;36.27;99981.81;5116525;28;20047;-50
2021/06/18 07:07:10;;;;;;;5.95;5.07;;;;;;;31.81;34.83;99977.91;5117315;27;20043;-50
2021/06/18 07:09:40;;;;;;;10.38;5.00;;;;;;;31.78;35.37;99981.78;5117457;28;20040;-49
2021/06/18 07:12:06;;;;;;;4.43;3.90;;;;;;;31.67;35.87;99987.56;5116175;28;20044;-50
2021/06/18 07:14:33;;;;;;;7.55;4.57;;;;;;;31.65;36.25;99974.22;5117128;28;20125;-50
2021/06/18 07:16:58;;;;;;;5.38;3.85;;;;;;;31.94;36.36;99980.94;5117424;28;20051;-50
2021/06/18 07:19:24;;;;;;;7.28;4.10;;;;;;;32.40;36.34;99974.88;5117034;28;20044;-50
2021/06/18 07:21:50;;;;;;;6.85;4.07;;;;;;;32.80;35.39;99979.31;5116861;28;20448;-50
2021/06/18 07:24:16;;;;;;;9.07;4.65;;;;;;;33.05;33.88;99980.00;5116647;28;20035;-49
2021/06/18 07:26:42;;;;;;;5.45;3.85;;;;;;;33.15;34.50;99982.50;5099011;28;20055;-50
2021/06/18 07:29:08;;;;;;;7.38;4.03;;;;;;;33.42;33.79;99981.97;5115804;28;20329;-50
2021/06/18 07:31:33;;;;;;;7.68;5.18;;;;;;;33.80;33.79;99976.56;5116886;28;20108;-50
2021/06/18 07:34:01;;;;;;;8.50;4.65;;;;;;;33.79;33.75;99969.44;5116025;28;20043;-50
2021/06/18 07:36:27;;;;;;;6.05;4.35;;;;;;;34.01;33.20;99969.56;5098810;28;20461;-50
2021/06/18 07:38:52;;;;;;;11.30;4.95;;;;;;;34.22;33.05;99971.53;5116872;28;20047;-50
2021/06/18 07:41:18;;;;;;;10.27;4.35;;;;;;;34.41;32.83;99971.81;5116419;28;20454;-50
2021/06/18 07:43:44;;;;;;;5.78;4.20;;;;;;;34.46;33.03;99973.97;5114976;28;20043;-50
2021/06/18 07:46:10;;;;;;;13.15;4.82;;;;;;;34.55;32.72;99972.03;5114491;28;20055;-50
2021/06/18 07:48:36;;;;;;;4.90;4.40;;;;;;;34.65;32.77;99967.13;5115428;28;20056;-50
2021/06/18 07:51:02;;;;;;;6.72;4.30;;;;;;;34.60;32.42;99964.13;5114813;28;20455;-50
2021/06/18 07:53:28;;;;;;;6.40;4.47;;;;;;;34.52;32.06;99956.94;5114438;28;20124;-50
2021/06/18 07:55:54;;;;;;;8.60;5.50;;;;;;;34.59;32.42;99960.56;5115796;28;20043;-50
2021/06/18 07:58:20;;;;;;;8.07;4.88;;;;;;;34.86;32.88;99958.16;5116155;28;20051;-50
2021/06/18 08:00:47;;;;;;;8.68;4.38;;;;;;;35.20;32.36;99957.50;5116897;28;20123;-50
2021/06/18 08:03:13;;;;;;;6.88;4.15;;;;;;;35.07;31.74;99954.66;5115725;28;20044;-50
2021/06/18 08:05:39;;;;;;;7.95;3.90;;;;;;;35.33;31.55;99956.78;5116189;28;20051;-49
2021/06/18 08:08:04;;;;;;;6.05;3.78;;;;;;;35.39;31.27;99960.59;5116463;28;20059;-49
2021/06/18 08:10:31;;;;;;;9.13;4.55;;;;;;;35.40;31.26;99956.84;5116479;28;20054;-50
2021/06/18 08:12:57;;;;;;;5.88;3.40;;;;;;;35.47;30.99;99947.69;5115448;28;20044;-50
2021/06/18 08:15:22;;;;;;;9.48;4.05;;;;;;;35.60;30.66;99952.44;5115606;28;20420;-50
2021/06/18 08:17:49;;;;;;;9.10;4.43;;;;;;;35.52;29.01;99949.81;5116237;28;20039;-49
2021/06/18 08:20:16;;;;;;;8.25;3.92;;;;;;;35.25;30.54;99951.47;5116724;28;20116;-50
2021/06/18 08:22:42;;;;;;;11.07;3.92;;;;;;;35.39;29.83;99949.69;5116433;28;20135;-50
2021/06/18 08:25:08;;;;;;;10.30;4.55;;;;;;;35.23;30.52;99948.09;5116410;28;20051;-49
2021/06/18 08:27:34;;;;;;;7.00;3.63;;;;;;;35.26;31.59;99944.97;5115961;28;20400;-50
2021/06/18 08:30:00;;;;;;;7.50;3.58;;;;;;;35.46;31.10;99946.00;5116510;28;20122;-50
2021/06/18 08:32:26;;;;;;;10.75;4.03;;;;;;;35.53;30.45;99929.75;5116314;28;20100;-50
2021/06/18 08:34:52;;;;;;;10.35;3.70;;;;;;;35.45;30.65;99929.84;5082069;28;20040;-49
2021/06/18 08:37:17;;;;;;;6.43;3.63;;;;;;;35.42;29.83;99938.41;5119434;28;20047;-50
2021/06/18 08:39:43;;;;;;;4.43;2.95;;;;;;;35.40;29.93;99940.50;5119975;28;20124;-50
2021/06/18 08:42:10;;;;;;;9.63;4.28;;;;;;;35.41;29.87;99939.47;5120402;28;20085;-50
2021/06/18 08:44:35;;;;;;;6.90;3.65;;;;;;;35.33;30.37;99932.28;5120088;28;20055;-49
2021/06/18 08:47:02;;;;;;;10.00;4.38;;;;;;;35.23;29.07;99931.75;5119789;28;20043;-49
2021/06/18 08:49:28;;;;;;;3.90;3.28;;;;;;;35.17;29.29;99930.69;5119915;28;20058;-49
2021/06/18 08:51:53;;;;;;;7.05;4.00;;;;;;;35.02;30.20;99929.88;5119081;28;20115;-50
2021/06/18 08:54:19;;;;;;;5.72;3.70;;;;;;;35.22;30.36;99928.19;5118789;28;20074;-49
2021/06/18 08:56:45;;;;;;;4.32;3.40;;;;;;;35.17;29.93;99927.13;5119918;28;20096;-49
2021/06/18 08:59:11;;;;;;;6.82;2.95;;;;;;;35.23;29.60;99932.63;5119204;28;20043;-50
2021/06/18 09:01:37;;;;;;;6.30;3.45;;;;;;;35.38;29.46;99935.25;5119776;28;20044;-50
2021/06/18 09:04:04;;;;;;;5.50;3.15;;;;;;;35.43;28.50;99923.78;5119450;28;20121;-50
2021/06/18 09:06:34;;;;;;;5.20;3.95;;;;;;;35.64;28.66;99923.75;5118491;28;20051;-50
2021/06/18 09:09:20;;;;;;;5.10;3.80;;;;;;;35.68;26.97;99929.66;5118433;28;20043;-50
2021/06/18 09:11:50;;;;;;;5.57;3.42;;;;;;;35.68;28.07;99927.75;5118643;28;20050;-50
2021/06/18 09:14:21;;;;;;;3.63;3.30;;;;;;;35.72;28.76;99930.94;5119474;28;20048;-50
2021/06/18 09:17:04;;;;;;;10.48;5.05;;;;;;;35.59;27.34;99926.25;5119247;27;20048;-50
2021/06/18 09:19:31;;;;;;;5.97;4.07;;;;;;;35.45;27.46;99927.13;5118273;28;20032;-50
2021/06/18 09:22:26;;;;;;;5.22;3.20;;;;;;;35.44;27.50;99920.84;5117980;27;20074;-50
2021/06/18 09:24:58;;;;;;;4.40;3.40;;;;;;;35.53;28.91;99922.44;5118886;28;20047;-50
2021/06/18 09:27:45;;;;;;;5.70;3.67;;;;;;;35.73;29.06;99922.56;5118847;28;20097;-50
2021/06/18 09:30:21;;;;;;;5.22;3.33;;;;;;;36.01;30.03;99918.94;5119488;27;20039;-50
2021/06/18 09:33:04;;;;;;;3.55;3.13;;;;;;;36.20;28.96;99917.41;5119246;28;20057;-49
2021/06/18 09:35:31;;;;;;;6.28;3.15;;;;;;;36.24;25.86;99914.09;5119182;28;20148;-50
2021/06/18 09:38:01;;;;;;;6.45;3.20;;;;;;;36.10;26.70;99917.78;5118373;28;20273;-50
2021/06/18 09:40:27;;;;;;;6.97;3.47;;;;;;;36.01;26.61;99918.94;5118443;28;20385;-50
2021/06/18 09:42:57;;;;;;;5.03;3.55;;;;;;;36.06;27.33;99919.22;5118946;28;20051;-50
2021/06/18 09:45:27;;;;;;;5.40;2.83;;;;;;;36.18;27.62;99916.78;5117758;28;20398;-50
2021/06/18 09:47:53;;;;;;;6.65;2.72;;;;;;;36.35;27.57;99904.47;5118044;27;20380;-50
2021/06/18 09:50:26;;;;;;;5.82;2.78;;;;;;;36.67;27.81;99913.00;5117628;28;20043;-50
2021/06/18 09:53:10;;;;;;;5.13;3.10;;;;;;;36.58;26.33;99920.53;5117976;28;20108;-50
2021/06/18 09:55:37;;;;;;;5.00;2.90;;;;;;;36.59;26.89;99910.47;5118462;28;20047;-50
2021/06/18 09:58:02;;;;;;;3.85;3.20;;;;;;;36.44;26.17;99905.16;5118386;28;20143;-50
2021/06/18 10:00:28;;;;;;;5.05;3.17;;;;;;;36.28;27.49;99904.47;5117744;28;20039;-50
2021/06/18 10:02:55;;;;;;;6.47;3.03;;;;;;;36.50;27.20;99899.75;5118567;28;20047;-50
2021/06/18 10:05:22;;;;;;;5.82;3.20;;;;;;;36.56;26.44;99897.22;5117660;28;20043;-50
2021/06/18 10:07:50;;;;;;;3.65;3.03;;;;;;;36.50;26.62;99898.91;5118450;28;20067;-50
2021/06/18 10:10:21;;;;;;;5.95;3.20;;;;;;;36.55;26.48;99892.84;5118649;28;20046;-50
2021/06/18 10:12:47;;;;;;;5.88;2.95;;;;;;;36.30;25.70;99884.31;5118424;28;20058;-50
2021/06/18 10:15:15;;;;;;;5.20;3.03;;;;;;;36.26;27.05;99884.72;5118065;28;20040;-50
2021/06/18 10:17:42;;;;;;;6.35;2.83;;;;;;;36.33;26.90;99887.47;5117107;28;20506;-50
2021/06/18 10:20:10;;;;;;;5.60;2.83;;;;;;;36.46;26.50;99886.69;5118263;27;20039;-50
2021/06/18 10:22:42;;;;;;;4.32;3.35;;;;;;;36.54;26.84;99889.28;5116998;28;20051;-50
2021/06/18 10:25:10;;;;;;;5.57;2.63;;;;;;;36.58;25.61;99884.25;5117569;28;20055;-50
2021/06/18 10:27:46;;;;;;;4.63;3.13;;;;;;;36.46;26.33;99875.78;5083548;28;20063;-50
2021/06/18 10:30:28;;;;;;;3.35;2.80;;;;;;;36.56;26.85;99886.31;5117962;28;20044;-50
2021/06/18 10:32:55;;;;;;;4.47;3.25;;;;;;;36.57;25.03;99890.75;5117740;28;20051;-50
2021/06/18 10:35:40;;;;;;;3.00;2.80;;;;;;;36.46;24.46;99887.50;5117613;28;20448;-50
2021/06/18 10:38:41;;;;;;;4.10;3.10;;;;;;;36.24;24.60;99883.28;5117954;28;20043;-49
2021/06/18 10:41:16;;;;;;;3.00;2.75;;;;;;;36.27;24.74;99880.09;5117584;28;20364;-50
2021/06/18 10:43:46;;;;;;;3.67;3.28;;;;;;;36.08;25.06;99880.91;5117618;28;20043;-50
2021/06/18 10:46:30;;;;;;;4.38;3.20;;;;;;;36.09;25.95;99882.56;5117452;28;20059;-49
2021/06/18 10:49:12;;;;;;;3.80;2.90;;;;;;;36.20;25.63;99884.69;5118018;28;20039;-50
2021/06/18 10:51:42;;;;;;;4.28;3.15;;;;;;;36.32;26.24;99871.34;5117793;28;20040;-50
2021/06/18 10:54:30;;;;;;;6.38;2.40;;;;;;;36.46;25.37;99873.88;5117887;28;20351;-50
2021/06/18 10:56:57;;;;;;;5.03;2.92;;;;;;;36.51;25.45;99881.50;5116945;28;20036;-49
2021/06/18 10:59:43;;;;;;;3.63;3.13;;;;;;;36.58;26.95;99879.63;5117429;28;20051;-50
2021/06/18 11:02:25;;;;;;;5.22;2.80;;;;;;;36.76;25.72;99875.44;5117463;28;20055;-50
2021/06/18 11:04:56;;;;;;;3.35;2.53;;;;;;;36.86;25.91;99865.00;5117427;28;20345;-50
2021/06/18 11:07:38;;;;;;;3.83;2.40;;;;;;;36.94;24.49;99868.34;5117343;28;20112;-50
2021/06/18 11:10:04;;;;;;;3.17;2.70;;;;;;;37.05;24.95;99875.13;5116953;28;20048;-50
2021/06/18 11:12:30;;;;;;;4.35;2.50;;;;;;;37.20;25.24;99877.63;5117293;28;20043;-50
2021/06/18 11:14:59;;;;;;;3.22;2.83;;;;;;;37.25;25.67;99875.13;5116984;28;20046;-50
2021/06/18 11:17:40;;;;;;;4.55;2.83;;;;;;;37.42;25.65;99872.78;5115970;28;20460;-50
2021/06/18 11:20:33;;;;;;;4.50;2.30;;;;;;;37.43;24.37;99866.28;5117084;28;20333;-50
2021/06/18 11:23:16;;;;;;;2.30;2.00;;;;;;;37.50;25.30;99864.41;5114528;28;20063;-49
2021/06/18 11:25:44;;;;;;;2.90;2.22;;;;;;;37.55;24.41;99863.78;5116850;28;20051;-50
2021/06/18 11:28:19;;;;;;;5.07;2.47;;;;;;;37.63;24.63;99858.91;5117058;28;20052;-49
2021/06/18 11:30:51;;;;;;;3.25;2.78;;;;;;;37.76;23.79;99859.94;5116525;28;20043;-49